createdAt,value
2023-02-03T00:01:36.447Z,2.63
2023-02-03T00:04:03.555Z,2.55
2023-02-03T00:06:32.141Z,2.35
2023-02-03T00:09:01.786Z,2.20
2023-02-03T00:11:32.388Z,2.15
2023-02-03T00:13:59.418Z,2.40
2023-02-03T00:16:26.538Z,2.05
2023-02-03T00:18:53.752Z,2.30
2023-02-03T00:21:20.752Z,2.35
2023-02-03T00:23:47.719Z,2.83
2023-02-03T00:26:17.379Z,2.47
2023-02-03T00:28:45.135Z,2.38
2023-02-03T00:31:18.122Z,1.88
2023-02-03T00:33:47.011Z,2.08
2023-02-03T00:36:14.334Z,2.60
2023-02-03T00:38:41.411Z,2.33
2023-02-03T00:41:10.020Z,2.22
2023-02-03T00:43:36.932Z,2.65
2023-02-03T00:46:04.211Z,2.33
2023-02-03T00:48:31.187Z,3.00
2023-02-03T00:50:59.274Z,2.42
2023-02-03T00:53:26.216Z,2.30
2023-02-03T00:55:53.296Z,2.03
2023-02-03T00:58:20.315Z,2.03
2023-02-03T01:00:47.492Z,1.92
2023-02-03T01:03:14.556Z,2.10
2023-02-03T01:05:43.575Z,2.45
2023-02-03T01:08:10.535Z,2.08
2023-02-03T01:10:38.763Z,2.53
2023-02-03T01:13:05.803Z,1.90
2023-02-03T01:15:32.798Z,2.10
2023-02-03T01:17:59.809Z,2.55
2023-02-03T01:20:27.026Z,2.88
2023-02-03T01:22:54.172Z,2.40
2023-02-03T01:25:21.173Z,3.10
2023-02-03T01:27:48.231Z,3.10
2023-02-03T01:30:15.353Z,2.97
2023-02-03T01:32:42.334Z,3.70
2023-02-03T01:35:09.245Z,3.25
2023-02-03T01:37:36.357Z,3.30
2023-02-03T01:40:03.869Z,2.90
2023-02-03T01:42:33.962Z,3.78
2023-02-03T01:45:01.201Z,2.65
2023-02-03T01:47:34.351Z,2.70
2023-02-03T01:50:31.900Z,2.40
2023-02-03T01:53:02.254Z,2.38
2023-02-03T01:55:35.970Z,2.05
2023-02-03T01:58:20.526Z,2.70
2023-02-03T02:00:49.659Z,2.90
2023-02-03T02:03:18.871Z,2.75
2023-02-03T02:05:54.605Z,2.80
2023-02-03T02:08:23.177Z,2.45
2023-02-03T02:10:50.781Z,2.13
2023-02-03T02:13:20.078Z,2.35
2023-02-03T02:16:08.420Z,2.08
2023-02-03T02:18:49.125Z,2.00
2023-02-03T02:21:31.233Z,2.40
2023-02-03T02:24:36.186Z,2.40
2023-02-03T02:27:26.341Z,1.85
2023-02-03T02:30:15.749Z,1.60
2023-02-03T02:32:51.874Z,1.73
2023-02-03T02:35:41.464Z,1.70
2023-02-03T02:38:19.632Z,1.55
2023-02-03T02:40:55.351Z,1.27
2023-02-03T02:43:37.565Z,1.30
2023-02-03T02:46:11.640Z,1.52
2023-02-03T02:49:11.431Z,1.30
2023-02-03T02:51:40.984Z,1.40
2023-02-03T02:54:13.993Z,1.05
2023-02-03T02:56:45.769Z,1.30
2023-02-03T02:59:14.257Z,1.60
2023-02-03T03:01:41.474Z,1.63
2023-02-03T03:04:13.446Z,1.80
2023-02-03T03:06:48.037Z,1.67
2023-02-03T03:09:36.310Z,1.70
2023-02-03T03:12:19.686Z,1.65
2023-02-03T03:14:50.385Z,2.45
2023-02-03T03:17:53.942Z,1.58
2023-02-03T03:20:26.050Z,2.03
2023-02-03T03:22:59.341Z,1.80
2023-02-03T03:25:31.848Z,1.85
2023-02-03T03:28:11.736Z,2.00
2023-02-03T03:30:40.069Z,1.77
2023-02-03T03:33:08.424Z,2.75
2023-02-03T03:35:45.795Z,1.67
2023-02-03T03:38:39.582Z,2.47
2023-02-03T03:41:21.099Z,2.28
2023-02-03T03:43:50.025Z,2.00
2023-02-03T03:46:22.862Z,2.80
2023-02-03T03:49:05.061Z,2.50
2023-02-03T03:51:41.232Z,3.10
2023-02-03T03:54:11.757Z,3.10
2023-02-03T03:56:48.435Z,2.83
2023-02-03T03:59:19.050Z,4.10
2023-02-03T04:01:48.128Z,3.80
2023-02-03T04:04:16.707Z,4.20
2023-02-03T04:06:43.773Z,4.28
2023-02-03T04:09:10.832Z,4.53
2023-02-03T04:11:56.318Z,5.15
2023-02-03T04:14:23.402Z,6.23
2023-02-03T04:16:50.550Z,6.10
2023-02-03T04:19:17.480Z,7.15
2023-02-03T04:21:44.558Z,7.47
2023-02-03T04:24:12.158Z,7.47
2023-02-03T04:26:40.652Z,8.00
2023-02-03T04:29:07.818Z,6.95
2023-02-03T04:31:34.899Z,8.02
2023-02-03T04:34:02.026Z,8.27
2023-02-03T04:36:28.990Z,8.40
2023-02-03T04:38:56.018Z,8.52
2023-02-03T04:41:23.154Z,8.48
2023-02-03T04:43:50.123Z,8.30
2023-02-03T04:46:18.301Z,7.82
2023-02-03T04:48:45.461Z,7.40
2023-02-03T04:51:12.661Z,7.78
2023-02-03T04:53:39.674Z,8.40
2023-02-03T04:56:06.945Z,7.60
2023-02-03T04:58:34.171Z,7.47
2023-02-03T05:01:07.684Z,8.65
2023-02-03T05:03:35.808Z,8.02
2023-02-03T05:06:03.464Z,7.38
2023-02-03T05:08:30.862Z,7.97
2023-02-03T05:10:59.154Z,7.88
2023-02-03T05:13:27.761Z,8.10
2023-02-03T05:15:54.768Z,8.93
2023-02-03T05:18:22.007Z,8.15
2023-02-03T05:20:48.989Z,8.00
2023-02-03T05:23:15.986Z,7.82
2023-02-03T05:25:44.650Z,8.48
2023-02-03T05:28:12.827Z,8.77
2023-02-03T05:30:39.999Z,8.90
2023-02-03T05:33:07.197Z,7.60
2023-02-03T05:35:34.667Z,6.82
2023-02-03T05:38:02.362Z,7.57
2023-02-03T05:40:47.902Z,7.05
2023-02-03T05:43:15.181Z,7.70
2023-02-03T05:45:42.222Z,7.00
2023-02-03T05:48:09.633Z,7.65
2023-02-03T05:50:38.792Z,7.97
2023-02-03T05:53:09.171Z,8.82
2023-02-03T05:55:36.732Z,8.70
2023-02-03T05:58:04.910Z,7.75
2023-02-03T06:00:32.068Z,8.50
2023-02-03T06:03:02.355Z,9.20
2023-02-03T06:05:30.717Z,8.48
2023-02-03T06:07:57.825Z,9.50
2023-02-03T06:10:25.346Z,10.40
2023-02-03T06:12:52.450Z,8.40
2023-02-03T06:15:19.494Z,9.57
2023-02-03T06:17:48.271Z,9.52
2023-02-03T06:20:18.585Z,8.77
2023-02-03T06:22:45.893Z,9.90
2023-02-03T06:25:14.406Z,8.32
2023-02-03T06:27:41.716Z,8.40
2023-02-03T06:30:09.569Z,9.88
2023-02-03T06:32:36.620Z,9.50
2023-02-03T06:35:03.938Z,9.45
2023-02-03T06:37:31.147Z,8.82
2023-02-03T06:39:58.114Z,9.48
2023-02-03T06:42:25.239Z,8.95
2023-02-03T06:44:52.500Z,8.90
2023-02-03T06:47:19.564Z,9.07
2023-02-03T06:49:46.545Z,9.73
2023-02-03T06:52:14.475Z,8.52
2023-02-03T06:54:41.835Z,8.10
2023-02-03T06:57:08.775Z,9.00
2023-02-03T06:59:35.720Z,8.35
2023-02-03T07:02:02.840Z,8.48
2023-02-03T07:04:30.346Z,7.93
2023-02-03T07:06:57.803Z,8.80
2023-02-03T07:09:24.861Z,7.90
2023-02-03T07:11:54.829Z,8.10
2023-02-03T07:14:21.808Z,7.07
2023-02-03T07:16:48.733Z,8.43
2023-02-03T07:19:15.835Z,7.60
2023-02-03T07:21:43.093Z,7.63
2023-02-03T07:24:10.216Z,7.63
2023-02-03T07:26:39.005Z,7.47
2023-02-03T07:29:06.048Z,7.53
2023-02-03T07:31:33.070Z,7.95
2023-02-03T07:34:01.271Z,7.30
2023-02-03T07:36:28.981Z,7.70
2023-02-03T07:38:56.195Z,7.13
2023-02-03T07:41:23.149Z,7.80
2023-02-03T07:43:50.263Z,7.25
2023-02-03T07:46:17.795Z,6.85
2023-02-03T07:48:44.930Z,6.80
2023-02-03T07:51:11.987Z,7.20
2023-02-03T07:53:39.076Z,6.93
2023-02-03T07:56:06.218Z,6.97
2023-02-03T07:58:33.691Z,7.20
2023-02-03T08:01:00.872Z,6.75
2023-02-03T08:03:27.962Z,7.40
2023-02-03T08:05:55.067Z,6.90
2023-02-03T08:08:22.229Z,6.93
2023-02-03T08:10:49.123Z,6.82
2023-02-03T08:13:17.128Z,7.10
2023-02-03T08:15:44.102Z,6.28
2023-02-03T08:18:12.730Z,7.05
2023-02-03T08:20:39.813Z,6.88
2023-02-03T08:23:06.815Z,6.70
2023-02-03T08:25:33.996Z,6.95
2023-02-03T08:28:01.184Z,7.13
2023-02-03T08:30:28.840Z,7.40
2023-02-03T08:32:55.967Z,6.47
2023-02-03T08:35:22.904Z,6.82
2023-02-03T08:37:49.857Z,6.22
2023-02-03T08:40:17.181Z,6.53
2023-02-03T08:42:46.163Z,6.88
2023-02-03T08:45:13.205Z,6.93
2023-02-03T08:47:40.196Z,6.53
2023-02-03T08:50:08.886Z,6.30
2023-02-03T08:52:36.143Z,7.22
2023-02-03T08:55:06.880Z,7.07
2023-02-03T08:57:35.861Z,6.70
2023-02-03T09:00:05.236Z,6.38
2023-02-03T09:02:32.274Z,6.68
2023-02-03T09:04:59.372Z,7.18
2023-02-03T09:07:26.413Z,6.57
2023-02-03T09:09:53.418Z,7.45
2023-02-03T09:12:20.429Z,6.40
2023-02-03T09:14:47.425Z,6.88
2023-02-03T09:17:16.092Z,7.30
2023-02-03T09:19:43.422Z,7.20
2023-02-03T09:22:10.359Z,7.78
2023-02-03T09:24:38.747Z,7.28
2023-02-03T09:27:05.830Z,7.22
2023-02-03T09:29:32.912Z,7.65
2023-02-03T09:32:00.333Z,7.20
2023-02-03T09:34:27.432Z,7.30
2023-02-03T09:36:54.687Z,7.47
2023-02-03T09:39:21.674Z,7.93
2023-02-03T09:42:38.700Z,7.30
2023-02-03T09:45:17.815Z,7.70
2023-02-03T09:47:45.494Z,6.80
2023-02-03T09:50:21.770Z,6.95
2023-02-03T09:52:49.777Z,7.15
2023-02-03T09:55:44.264Z,6.72
2023-02-03T09:58:15.586Z,6.45
2023-02-03T10:00:55.861Z,5.80
2023-02-03T10:03:36.807Z,6.25
2023-02-03T10:06:09.813Z,5.90
2023-02-03T10:08:55.519Z,6.18
2023-02-03T10:11:54.459Z,6.15
2023-02-03T10:14:33.863Z,6.80
2023-02-03T10:17:22.395Z,6.25
2023-02-03T10:20:15.882Z,6.65
2023-02-03T10:22:58.673Z,6.32
2023-02-03T10:25:42.792Z,5.47
2023-02-03T10:28:21.275Z,5.60
2023-02-03T10:31:01.203Z,6.22
2023-02-03T10:33:30.391Z,6.43
2023-02-03T10:36:23.318Z,6.28
2023-02-03T10:39:01.802Z,5.72
2023-02-03T10:41:31.079Z,5.57
2023-02-03T10:43:59.902Z,6.20
2023-02-03T10:46:35.624Z,5.65
2023-02-03T10:49:03.317Z,5.45
2023-02-03T10:51:41.833Z,5.70
2023-02-03T10:54:33.900Z,5.38
2023-02-03T10:57:16.006Z,5.13
2023-02-03T10:59:45.760Z,5.22
2023-02-03T11:02:26.620Z,5.63
2023-02-03T11:05:32.449Z,7.60
2023-02-03T11:08:00.250Z,5.18
2023-02-03T11:10:37.105Z,4.53
2023-02-03T11:13:25.016Z,4.78
2023-02-03T11:16:02.624Z,4.47
2023-02-03T11:18:37.764Z,4.80
2023-02-03T11:21:09.602Z,4.35
2023-02-03T11:23:45.034Z,4.00
2023-02-03T11:26:18.729Z,3.97
2023-02-03T11:28:49.171Z,5.13
2023-02-03T11:31:27.049Z,4.00
2023-02-03T11:33:57.527Z,4.53
2023-02-03T11:36:27.790Z,4.00
2023-02-03T11:39:41.593Z,4.15
2023-02-03T11:42:22.885Z,3.92
2023-02-03T11:44:50.311Z,3.75
2023-02-03T11:47:19.453Z,3.70
2023-02-03T11:50:27.357Z,3.22
2023-02-03T11:53:13.980Z,3.17
2023-02-03T11:59:13.005Z,3.65
2023-02-03T12:02:18.103Z,2.55
2023-02-03T12:04:55.335Z,3.00
2023-02-03T12:07:31.447Z,3.30
2023-02-03T12:10:21.812Z,3.05
2023-02-03T12:12:52.477Z,2.38
2023-02-03T12:15:33.249Z,2.78
2023-02-03T12:18:16.684Z,2.53
2023-02-03T12:21:17.884Z,2.67
2023-02-03T12:23:53.897Z,3.88
2023-02-03T12:29:04.897Z,2.58
2023-02-03T12:31:41.457Z,2.65
2023-02-03T12:34:33.582Z,2.60
2023-02-03T12:37:33.192Z,2.58
2023-02-03T12:40:12.430Z,2.65
2023-02-03T12:42:47.522Z,2.40
2023-02-03T12:45:20.357Z,2.20
2023-02-03T12:47:52.716Z,2.47
2023-02-03T12:50:34.888Z,2.88
2023-02-03T12:53:06.389Z,3.08
2023-02-03T12:55:41.714Z,3.63
2023-02-03T12:58:49.140Z,2.38
2023-02-03T13:01:31.580Z,2.50
2023-02-03T13:04:37.041Z,3.35
2023-02-03T13:07:04.142Z,2.63
2023-02-03T13:09:49.862Z,2.92
2023-02-03T13:12:19.983Z,3.50
2023-02-03T13:14:49.503Z,3.15
2023-02-03T13:17:28.090Z,3.33
2023-02-03T13:20:23.512Z,3.15
2023-02-03T13:22:53.096Z,3.88
2023-02-03T13:25:32.387Z,2.33
2023-02-03T13:28:11.394Z,2.67
2023-02-03T13:31:08.731Z,3.00
2023-02-03T13:33:44.870Z,2.90
2023-02-03T13:36:30.749Z,2.63
2023-02-03T13:39:34.717Z,3.13
2023-02-03T13:42:23.557Z,2.92
2023-02-03T13:44:59.562Z,2.50
2023-02-03T13:50:07.369Z,2.15
2023-02-03T13:53:01.980Z,2.80
2023-02-03T13:56:05.781Z,3.00
2023-02-03T13:58:39.242Z,2.70
2023-02-03T14:01:27.824Z,2.42
2023-02-03T14:03:55.148Z,3.25
2023-02-03T14:06:40.342Z,3.90
2023-02-03T14:09:20.651Z,3.30
2023-02-03T14:11:53.040Z,2.97
2023-02-03T14:14:22.977Z,3.08
2023-02-03T14:16:55.219Z,3.10
2023-02-03T14:19:22.279Z,2.92
2023-02-03T14:21:54.431Z,3.13
2023-02-03T14:24:22.931Z,3.80
2023-02-03T14:26:55.271Z,2.63
2023-02-03T14:29:32.546Z,3.47
2023-02-03T14:32:00.938Z,3.17
2023-02-03T14:34:38.463Z,3.20
2023-02-03T14:37:30.858Z,2.92
2023-02-03T14:40:13.239Z,2.92
2023-02-03T14:42:50.469Z,3.67
2023-02-03T14:45:42.517Z,3.13
2023-02-03T14:48:35.690Z,2.90
2023-02-03T14:51:30.127Z,3.20
2023-02-03T14:54:22.877Z,3.15
2023-02-03T14:57:18.759Z,2.88
2023-02-03T15:00:21.801Z,2.55
2023-02-03T15:03:09.833Z,3.40
2023-02-03T15:05:45.577Z,3.17
2023-02-03T15:08:36.027Z,2.80
2023-02-03T15:11:16.806Z,3.35
2023-02-03T15:13:44.021Z,2.38
2023-02-03T15:16:18.493Z,2.33
2023-02-03T15:18:45.751Z,2.67
2023-02-03T15:21:20.455Z,3.15
2023-02-03T15:23:49.470Z,3.35
2023-02-03T15:26:20.889Z,2.90
2023-02-03T15:29:07.287Z,3.08
2023-02-03T15:34:30.723Z,3.30
2023-02-03T15:37:02.877Z,3.35
2023-02-03T15:39:53.491Z,3.03
2023-02-03T15:42:46.879Z,3.15
2023-02-03T15:45:23.584Z,3.22
2023-02-03T15:48:06.115Z,2.60
2023-02-03T15:50:40.525Z,2.80
2023-02-03T15:53:17.531Z,2.80
2023-02-03T15:55:50.999Z,2.50
2023-02-03T15:58:25.408Z,3.00
2023-02-03T16:01:03.708Z,3.50
2023-02-03T16:03:44.727Z,3.20
2023-02-03T16:06:30.685Z,3.25
2023-02-03T16:08:59.732Z,3.05
2023-02-03T16:11:39.203Z,3.15
2023-02-03T16:14:10.367Z,3.17
2023-02-03T16:16:43.784Z,3.60
2023-02-03T16:19:20.460Z,2.83
2023-02-03T16:21:50.613Z,2.78
2023-02-03T16:24:30.812Z,3.47
2023-02-03T16:27:27.191Z,3.65
2023-02-03T16:30:33.897Z,4.63
2023-02-03T16:33:31.270Z,5.30
2023-02-03T16:36:32.107Z,6.25
2023-02-03T16:39:21.647Z,4.05
2023-02-03T16:42:07.194Z,3.15
2023-02-03T16:44:52.772Z,4.15
2023-02-03T16:47:41.179Z,2.95
2023-02-03T16:50:38.958Z,3.42
2023-02-03T16:53:16.250Z,3.00
2023-02-03T16:55:44.672Z,4.18
2023-02-03T16:58:12.666Z,3.80
2023-02-03T17:00:42.071Z,3.67
2023-02-03T17:03:17.762Z,3.42
2023-02-03T17:05:46.357Z,3.08
2023-02-03T17:08:14.262Z,3.47
2023-02-03T17:10:44.055Z,3.55
2023-02-03T17:13:11.978Z,2.92
2023-02-03T17:15:50.589Z,3.25
2023-02-03T17:18:18.063Z,3.78
2023-02-03T17:20:46.654Z,3.63
2023-02-03T17:23:16.388Z,2.90
2023-02-03T17:25:49.078Z,2.25
2023-02-03T17:28:16.546Z,3.33
2023-02-03T17:30:43.881Z,3.38
2023-02-03T17:33:14.279Z,3.10
2023-02-03T17:35:43.330Z,3.10
2023-02-03T17:38:12.444Z,3.10
2023-02-03T17:54:31.892Z,2.85
2023-02-03T17:56:59.077Z,3.22
2023-02-03T17:59:26.264Z,3.33
2023-02-03T18:01:56.527Z,2.70
2023-02-03T18:04:24.603Z,2.92
2023-02-03T18:06:53.503Z,2.53
2023-02-03T18:09:23.689Z,2.45
2023-02-03T18:11:51.756Z,2.50
2023-02-03T18:14:19.223Z,3.28
2023-02-03T18:16:49.482Z,3.47
2023-02-03T18:19:16.587Z,3.70
2023-02-03T18:21:44.285Z,3.30
2023-02-03T18:24:13.350Z,3.00
2023-02-03T18:26:51.802Z,3.55
2023-02-03T18:29:20.500Z,2.95
2023-02-03T18:31:48.282Z,2.47
2023-02-03T18:34:16.775Z,3.65
2023-02-03T18:36:43.979Z,2.90
2023-02-03T18:39:12.690Z,3.00
2023-02-03T18:41:40.163Z,2.72
2023-02-03T18:44:07.332Z,4.25
2023-02-03T18:46:34.446Z,3.10
2023-02-03T18:49:01.768Z,3.15
2023-02-03T18:51:29.011Z,3.58
2023-02-03T18:54:00.268Z,3.67
2023-02-03T18:56:35.495Z,2.58
2023-02-03T18:59:10.082Z,3.47
2023-02-03T19:01:39.227Z,3.38
2023-02-03T19:04:07.420Z,3.00
2023-02-03T19:06:35.985Z,3.92
2023-02-03T19:09:04.157Z,4.40
2023-02-03T19:11:31.314Z,4.13
2023-02-03T19:13:58.265Z,3.90
2023-02-03T19:16:25.410Z,3.45
2023-02-03T19:18:53.608Z,3.53
2023-02-03T19:21:20.661Z,4.07
2023-02-03T19:23:48.110Z,3.58
2023-02-03T19:26:15.308Z,3.95
2023-02-03T19:28:42.440Z,4.00
2023-02-03T19:31:14.068Z,3.90
2023-02-03T19:33:41.552Z,3.13
2023-02-03T19:36:09.353Z,3.40
2023-02-03T19:38:37.038Z,3.50
2023-02-03T19:41:04.829Z,2.58
2023-02-03T19:43:31.855Z,3.10
2023-02-03T19:45:59.492Z,3.95
2023-02-03T19:48:26.649Z,3.45
2023-02-03T19:50:53.728Z,2.78
2023-02-03T19:53:21.692Z,3.50
2023-02-03T19:55:48.760Z,3.05
2023-02-03T19:58:16.566Z,3.65
2023-02-03T20:00:43.648Z,3.70
2023-02-03T20:03:10.861Z,3.72
2023-02-03T20:05:38.307Z,2.80
2023-02-03T20:08:05.927Z,4.15
2023-02-03T20:10:33.357Z,3.75
2023-02-03T20:13:00.926Z,2.83
2023-02-03T20:15:28.322Z,3.30
2023-02-03T20:17:55.625Z,3.83
2023-02-03T20:20:23.130Z,2.80
2023-02-03T20:22:50.538Z,2.80
2023-02-03T20:25:18.441Z,3.42
2023-02-03T20:27:47.632Z,2.90
2023-02-03T20:30:14.838Z,2.70
2023-02-03T20:32:42.012Z,3.30
2023-02-03T20:35:10.135Z,3.35
2023-02-03T20:37:37.294Z,3.33
2023-02-03T20:40:13.146Z,3.15
2023-02-03T20:42:40.333Z,3.15
2023-02-03T20:45:14.530Z,4.65
2023-02-03T20:47:41.930Z,3.05
2023-02-03T20:50:31.386Z,3.53
2023-02-03T20:53:01.693Z,4.00
2023-02-03T20:55:28.926Z,2.85
2023-02-03T20:57:57.021Z,3.33
2023-02-03T21:00:26.304Z,2.85
2023-02-03T21:03:12.080Z,2.60
2023-02-03T21:05:42.203Z,2.92
2023-02-03T21:08:19.698Z,3.47
2023-02-03T21:10:48.187Z,2.60
2023-02-03T21:13:23.710Z,3.80
2023-02-03T21:15:53.013Z,2.95
2023-02-03T21:18:26.252Z,2.30
2023-02-03T21:20:53.430Z,2.95
2023-02-03T21:23:24.443Z,3.10
2023-02-03T21:25:51.643Z,2.67
2023-02-03T21:28:28.853Z,2.95
2023-02-03T21:30:57.182Z,2.60
2023-02-03T21:33:44.191Z,3.33
2023-02-03T21:36:23.194Z,2.50
2023-02-03T21:38:53.537Z,2.97
2023-02-03T21:41:23.225Z,2.47
2023-02-03T21:43:55.774Z,2.13
2023-02-03T21:46:36.157Z,2.90
2023-02-03T21:49:04.468Z,3.00
2023-02-03T21:51:39.098Z,2.60
2023-02-03T21:54:25.816Z,2.50
2023-02-03T21:56:54.299Z,2.97
2023-02-03T21:59:38.531Z,2.47
2023-02-03T22:02:25.544Z,2.35
2023-02-03T22:04:52.775Z,1.77
2023-02-03T22:07:19.996Z,2.03
2023-02-03T22:09:50.304Z,2.22
2023-02-03T22:12:17.440Z,2.38
2023-02-03T22:14:44.486Z,2.05
2023-02-03T22:17:14.287Z,2.28
2023-02-03T22:19:41.437Z,2.00
2023-02-03T22:22:08.524Z,1.70
2023-02-03T22:24:35.680Z,2.00
2023-02-03T22:27:02.763Z,2.10
2023-02-03T22:29:29.881Z,2.00
2023-02-03T22:31:57.141Z,1.95
2023-02-03T22:34:24.334Z,2.10
2023-02-03T22:36:51.370Z,1.50
2023-02-03T22:39:18.442Z,1.80
2023-02-03T22:41:45.645Z,2.38
2023-02-03T22:44:16.156Z,2.47
2023-02-03T22:46:43.091Z,1.88
2023-02-03T22:49:10.568Z,1.77
2023-02-03T22:51:37.606Z,1.60
2023-02-03T22:54:04.884Z,1.83
2023-02-03T22:56:31.948Z,2.03
2023-02-03T22:58:59.162Z,1.92
2023-02-03T23:01:26.172Z,2.47
2023-02-03T23:03:53.288Z,1.98
2023-02-03T23:06:20.507Z,2.55
2023-02-03T23:08:47.664Z,1.83
2023-02-03T23:11:14.620Z,2.05
2023-02-03T23:13:41.680Z,1.13
2023-02-03T23:16:08.687Z,1.48
2023-02-03T23:18:35.714Z,1.08
2023-02-03T23:21:02.834Z,0.82
2023-02-03T23:23:29.950Z,0.70
2023-02-03T23:25:56.976Z,0.60
2023-02-03T23:28:24.280Z,0.60
2023-02-03T23:30:52.459Z,0.60
2023-02-03T23:33:19.517Z,0.68
2023-02-03T23:35:46.515Z,0.50
2023-02-03T23:38:17.732Z,0.50
2023-02-03T23:40:45.351Z,0.50
2023-02-03T23:43:12.524Z,0.47
2023-02-03T23:45:40.253Z,0.47
2023-02-03T23:48:08.739Z,0.40
2023-02-03T23:50:37.186Z,0.40
2023-02-03T23:53:04.428Z,0.50
2023-02-03T23:55:31.565Z,0.30
2023-02-03T23:57:58.801Z,0.50
